Alix Anne Eckstein — WDH6446 — position and weather

sailwx.info

Track history (hours):
 
Tides and Currents Weather Stations Pressure Air Temp Water Temp Dewpoint Dewpoint Depression Visibility Wind Speed Wind Dir Waves Ship Positions

Alix Anne Eckstein

Owner: Marquette Transportation Co. LLC, Paducah, KY. More information available from US FCC via Universal Licensing System and Coast Guard Vessel Documentation Center.

Last reported at 2017-Nov-20 00:30 UTC. Time now 2017-Nov-24 02:08 UTC.
Position N 32°08' W 091°06'.

Length 48 m; draft 3.2 m.

Type: Tow > 200 m length. MMSI: 367638050.

Date/timePositionNaut miles runAvg speedWind from/ knotsBaromVisibWave heightAir tempDewpointWater temp
2017-Nov-20 00:30N 32°08' W 091°06'2 4.8
2017-Nov-20 00:00N 32°08' W 091°04'4 7.1
2017-Nov-19 23:30N 32°10' W 091°00'5 9.8
2017-Nov-19 23:00N 32°14' W 090°59'5 9.5
2017-Nov-19 22:30N 32°18' W 090°55'3 5.6
2017-Nov-19 22:00N 32°21' W 090°56'2 4.2
2017-Nov-19 21:30N 32°21' W 090°58'3 5.1
2017-Nov-19 21:00N 32°23' W 090°60'4 7.7
2017-Nov-19 20:30N 32°26' W 091°03'5 9.3
2017-Nov-19 20:00N 32°29' W 091°07'5 9.3
2017-Nov-19 19:25N 32°34' W 091°07'6 8.6
2017-Nov-19 18:47N 32°40' W 091°08'  
2017-Nov-17 00:43N 32°46' W 091°10'5 6.3
2017-Nov-16 23:58N 32°44' W 091°05'5 5.8
2017-Nov-16 23:05N 32°40' W 091°08'2 7.6
2017-Nov-16 22:47N 32°38' W 091°09'2 7.9
2017-Nov-16 22:30N 32°36' W 091°08'3 5.8
2017-Nov-16 22:00N 32°34' W 091°06'4 8.5
2017-Nov-16 21:30N 32°29' W 091°07'4 8.1
2017-Nov-16 21:00N 32°26' W 091°04'4 7.9
2017-Nov-16 20:30N 32°25' W 090°60'4 7.1
2017-Nov-16 20:00N 32°21' W 090°59'4 8.3
2017-Nov-16 19:30N 32°20' W 090°54'3 6.6
2017-Nov-16 19:00N 32°17' W 090°56'4 7.8
2017-Nov-16 18:30N 32°14' W 090°59'4 8.2
2017-Nov-16 18:00N 32°10' W 090°60'4 7.2
2017-Nov-16 17:30N 32°07' W 091°02'4 7.4
2017-Nov-16 17:00N 32°08' W 091°06'5 6.7
2017-Nov-16 16:17N 32°04' W 091°03'3 8.8
2017-Nov-16 16:00N 32°01' W 091°04'7 7.6
2017-Nov-16 15:03N 31°57' W 091°11'123 3.9
2017-Nov-15 07:24N 29°60' W 090°27'3 6.2
2017-Nov-15 06:57N 29°59' W 090°24'3 6.1
2017-Nov-15 06:30N 29°57' W 090°23'7 4.9
2017-Nov-15 05:03N 29°58' W 090°15'0 0.1
2017-Nov-15 04:47N 29°58' W 090°15'  
2017-Nov-12 10:48N 31°42' W 091°24'4 9.5
2017-Nov-12 10:20N 31°46' W 091°22'3 9.3
2017-Nov-12 10:00N 31°49' W 091°21'3 5.5
2017-Nov-12 09:30N 31°51' W 091°20'4 7.4
2017-Nov-12 09:00N 31°52' W 091°15'5 9.1
2017-Nov-12 08:30N 31°55' W 091°12'5 8.1
2017-Nov-12 07:56N 31°59' W 091°09'4 8.8
2017-Nov-12 07:30N 32°00' W 091°05'5 8.2
2017-Nov-12 06:52N 32°05' W 091°05'2 6.5
2017-Nov-12 06:30N 32°07' W 091°07'2 4.5
2017-Nov-12 06:00N 32°08' W 091°04'4 7.3
2017-Nov-12 05:30N 32°09' W 091°00'4 8.6
2017-Nov-12 05:00N 32°14' W 090°59'4 8.7
2017-Nov-12 04:30N 32°17' W 090°56'4 7.0
2017-Nov-12 04:00N 32°20' W 090°54'3 6.7
2017-Nov-12 03:30N 32°21' W 090°58'3 6.0
2017-Nov-12 03:00N 32°24' W 090°59'4 7.5
2017-Nov-12 02:30N 32°26' W 091°03'4 8.5
2017-Nov-12 02:00N 32°29' W 091°07'5 9.0
2017-Nov-12 01:30N 32°33' W 091°06'4 8.5
2017-Nov-12 01:00N 32°37' W 091°09'  
Track history (hours):
 
Tides and Currents Weather Stations Pressure Air Temp Water Temp Dewpoint Dewpoint Depression Visibility Wind Speed Wind Dir Waves Ship Positions

Alix Anne Eckstein

Owner: Marquette Transportation Co. LLC, Paducah, KY. More information available from US FCC via Universal Licensing System and Coast Guard Vessel Documentation Center.

Last reported at 2017-Nov-20 00:30 UTC. Time now 2017-Nov-24 02:08 UTC.
Position N 32°08' W 091°06'.

Length 48 m; draft 3.2 m.

Type: Tow > 200 m length. MMSI: 367638050.

Date/timePositionNaut miles runAvg speedWind from/ knotsBaromVisibWave heightAir tempDewpointWater temp
2017-Nov-20 00:30N 32°08' W 091°06'2 4.8
2017-Nov-20 00:00N 32°08' W 091°04'4 7.1
2017-Nov-19 23:30N 32°10' W 091°00'5 9.8
2017-Nov-19 23:00N 32°14' W 090°59'5 9.5
2017-Nov-19 22:30N 32°18' W 090°55'3 5.6
2017-Nov-19 22:00N 32°21' W 090°56'2 4.2
2017-Nov-19 21:30N 32°21' W 090°58'3 5.1
2017-Nov-19 21:00N 32°23' W 090°60'4 7.7
2017-Nov-19 20:30N 32°26' W 091°03'5 9.3
2017-Nov-19 20:00N 32°29' W 091°07'5 9.3
2017-Nov-19 19:25N 32°34' W 091°07'6 8.6
2017-Nov-19 18:47N 32°40' W 091°08'  
2017-Nov-17 00:43N 32°46' W 091°10'5 6.3
2017-Nov-16 23:58N 32°44' W 091°05'5 5.8
2017-Nov-16 23:05N 32°40' W 091°08'2 7.6
2017-Nov-16 22:47N 32°38' W 091°09'2 7.9
2017-Nov-16 22:30N 32°36' W 091°08'3 5.8
2017-Nov-16 22:00N 32°34' W 091°06'4 8.5
2017-Nov-16 21:30N 32°29' W 091°07'4 8.1
2017-Nov-16 21:00N 32°26' W 091°04'4 7.9
2017-Nov-16 20:30N 32°25' W 090°60'4 7.1
2017-Nov-16 20:00N 32°21' W 090°59'4 8.3
2017-Nov-16 19:30N 32°20' W 090°54'3 6.6
2017-Nov-16 19:00N 32°17' W 090°56'4 7.8
2017-Nov-16 18:30N 32°14' W 090°59'4 8.2
2017-Nov-16 18:00N 32°10' W 090°60'4 7.2
2017-Nov-16 17:30N 32°07' W 091°02'4 7.4
2017-Nov-16 17:00N 32°08' W 091°06'5 6.7
2017-Nov-16 16:17N 32°04' W 091°03'3 8.8
2017-Nov-16 16:00N 32°01' W 091°04'7 7.6
2017-Nov-16 15:03N 31°57' W 091°11'123 3.9
2017-Nov-15 07:24N 29°60' W 090°27'3 6.2
2017-Nov-15 06:57N 29°59' W 090°24'3 6.1
2017-Nov-15 06:30N 29°57' W 090°23'7 4.9
2017-Nov-15 05:03N 29°58' W 090°15'0 0.1
2017-Nov-15 04:47N 29°58' W 090°15'  
2017-Nov-12 10:48N 31°42' W 091°24'4 9.5
2017-Nov-12 10:20N 31°46' W 091°22'3 9.3
2017-Nov-12 10:00N 31°49' W 091°21'3 5.5
2017-Nov-12 09:30N 31°51' W 091°20'4 7.4
2017-Nov-12 09:00N 31°52' W 091°15'5 9.1
2017-Nov-12 08:30N 31°55' W 091°12'5 8.1
2017-Nov-12 07:56N 31°59' W 091°09'4 8.8
2017-Nov-12 07:30N 32°00' W 091°05'5 8.2
2017-Nov-12 06:52N 32°05' W 091°05'2 6.5
2017-Nov-12 06:30N 32°07' W 091°07'2 4.5
2017-Nov-12 06:00N 32°08' W 091°04'4 7.3
2017-Nov-12 05:30N 32°09' W 091°00'4 8.6
2017-Nov-12 05:00N 32°14' W 090°59'4 8.7
2017-Nov-12 04:30N 32°17' W 090°56'4 7.0
2017-Nov-12 04:00N 32°20' W 090°54'3 6.7
2017-Nov-12 03:30N 32°21' W 090°58'3 6.0
2017-Nov-12 03:00N 32°24' W 090°59'4 7.5
2017-Nov-12 02:30N 32°26' W 091°03'4 8.5
2017-Nov-12 02:00N 32°29' W 091°07'5 9.0
2017-Nov-12 01:30N 32°33' W 091°06'4 8.5
2017-Nov-12 01:00N 32°37' W 091°09'  

Dump ship's entire track history